createdAt,value
2019-02-08T00:02:21.472Z,99.90
2019-02-08T00:07:17.685Z,99.90
2019-02-08T00:12:13.453Z,99.90
2019-02-08T00:17:09.342Z,99.90
2019-02-08T00:22:08.006Z,99.90
2019-02-08T00:27:05.216Z,99.90
2019-02-08T00:32:01.101Z,99.90
2019-02-08T00:36:56.899Z,99.90
2019-02-08T00:41:52.621Z,99.90
2019-02-08T00:46:48.381Z,99.90
2019-02-08T00:51:44.167Z,99.90
2019-02-08T00:56:39.911Z,99.90
2019-02-08T01:01:35.949Z,99.90
2019-02-08T01:06:31.861Z,99.90
2019-02-08T01:11:28.146Z,99.90
2019-02-08T01:16:23.983Z,99.90
2019-02-08T01:21:19.738Z,99.90
2019-02-08T01:26:17.188Z,99.90
2019-02-08T01:31:13.081Z,99.90
2019-02-08T01:36:10.565Z,99.90
2019-02-08T01:41:08.492Z,99.90
2019-02-08T01:46:04.788Z,99.90
2019-02-08T01:51:00.556Z,99.90
2019-02-08T01:55:56.744Z,99.90
2019-02-08T02:00:52.610Z,99.90
2019-02-08T02:05:48.488Z,99.90
2019-02-08T02:10:47.895Z,99.90
2019-02-08T02:15:44.009Z,99.90
2019-02-08T02:20:40.899Z,99.90
2019-02-08T02:25:36.854Z,99.90
2019-02-08T02:30:34.368Z,99.90
2019-02-08T02:35:30.269Z,99.90
2019-02-08T02:40:26.194Z,99.90
2019-02-08T02:45:24.809Z,99.90
2019-02-08T02:50:21.777Z,99.90
2019-02-08T02:55:18.287Z,99.90
2019-02-08T03:00:17.647Z,99.90
2019-02-08T03:05:13.662Z,99.90
2019-02-08T03:10:11.405Z,99.90
2019-02-08T03:15:08.306Z,99.90
2019-02-08T03:20:04.582Z,99.90
2019-02-08T03:25:02.969Z,99.90
2019-02-08T03:29:58.798Z,99.90
2019-02-08T03:34:54.653Z,99.90
2019-02-08T03:39:52.083Z,99.90
2019-02-08T03:44:50.598Z,99.90
2019-02-08T03:49:46.367Z,99.90
2019-02-08T03:54:42.032Z,99.90
2019-02-08T03:59:37.756Z,99.90
2019-02-08T04:04:34.457Z,99.90
2019-02-08T04:09:30.168Z,99.90
2019-02-08T04:14:26.082Z,99.90
2019-02-08T04:19:24.696Z,99.90
2019-02-08T04:24:20.568Z,99.90
2019-02-08T04:29:17.437Z,99.90
2019-02-08T04:34:13.247Z,99.90
2019-02-08T04:39:12.208Z,99.90
2019-02-08T04:44:08.043Z,99.90
2019-02-08T04:49:04.272Z,99.90
2019-02-08T04:53:59.957Z,99.90
2019-02-08T04:58:55.740Z,99.90
2019-02-08T05:03:51.432Z,99.90
2019-02-08T05:08:47.168Z,99.90
2019-02-08T05:13:43.099Z,99.90
2019-02-08T05:18:38.840Z,99.90
2019-02-08T05:23:35.635Z,99.90
2019-02-08T05:28:32.436Z,99.90
2019-02-08T05:33:28.165Z,99.90
2019-02-08T05:38:23.826Z,99.90
2019-02-08T05:43:20.100Z,99.90
2019-02-08T05:48:16.263Z,99.90
2019-02-08T05:53:12.259Z,99.90
2019-02-08T05:58:08.254Z,99.90
2019-02-08T06:03:03.922Z,99.90
2019-02-08T06:07:58.755Z,99.90
2019-02-08T06:12:56.654Z,99.90
2019-02-08T06:17:52.734Z,99.90
2019-02-08T06:22:48.869Z,99.90
2019-02-08T06:27:44.887Z,99.90
2019-02-08T06:32:41.037Z,99.90
2019-02-08T06:37:43.990Z,99.90
2019-02-08T06:42:34.074Z,99.90
2019-02-08T06:47:29.859Z,99.90
2019-02-08T06:52:25.604Z,99.90
2019-02-08T06:57:52.518Z,99.90
2019-02-08T07:03:07.359Z,99.90
2019-02-08T07:08:29.249Z,99.90
2019-02-08T07:13:35.980Z,99.90
2019-02-08T07:18:39.699Z,99.90
2019-02-08T07:23:53.124Z,99.90
2019-02-08T07:29:06.195Z,99.90
2019-02-08T07:34:25.007Z,99.90
2019-02-08T07:39:37.950Z,99.90
2019-02-08T07:44:57.615Z,99.90
2019-02-08T07:50:11.087Z,99.90
2019-02-08T07:55:27.428Z,99.90
2019-02-08T08:00:37.244Z,99.90
2019-02-08T08:05:55.328Z,99.90
2019-02-08T08:11:19.206Z,99.90
2019-02-08T08:16:41.299Z,99.90
2019-02-08T08:21:59.345Z,99.90
2019-02-08T08:27:03.044Z,99.90
2019-02-08T08:32:13.732Z,99.90
2019-02-08T08:37:49.483Z,99.90
2019-02-08T08:42:57.434Z,99.90
2019-02-08T08:48:29.807Z,99.90
2019-02-08T08:54:05.264Z,99.90
2019-02-08T08:59:39.033Z,99.90
2019-02-08T09:05:04.296Z,99.90
2019-02-08T09:11:05.384Z,99.90
2019-02-08T09:16:28.412Z,99.90
2019-02-08T09:22:04.143Z,99.90
2019-02-08T09:27:55.337Z,99.90
2019-02-08T09:33:40.747Z,99.90
2019-02-08T09:39:17.628Z,98.70
2019-02-08T09:44:50.689Z,96.70
2019-02-08T09:50:33.054Z,92.10
2019-02-08T09:56:14.756Z,90.70
2019-02-08T10:01:35.598Z,89.00
2019-02-08T10:07:04.995Z,88.90
2019-02-08T10:12:49.567Z,88.10
2019-02-08T10:18:22.446Z,84.80
2019-02-08T10:23:54.293Z,79.60
2019-02-08T10:29:26.833Z,76.60
2019-02-08T10:34:52.576Z,76.00
2019-02-08T10:40:23.785Z,77.10
2019-02-08T10:45:54.803Z,79.20
2019-02-08T10:51:38.704Z,75.90
2019-02-08T10:57:24.647Z,71.20
2019-02-08T11:02:57.306Z,68.50
2019-02-08T11:08:48.474Z,66.70
2019-02-08T11:14:31.888Z,64.20
2019-02-08T11:19:25.986Z,61.20
2019-02-08T11:24:27.020Z,56.00
2019-02-08T11:29:23.209Z,54.20
2019-02-08T11:34:19.336Z,55.90
2019-02-08T11:39:22.228Z,56.00
2019-02-08T11:44:19.707Z,55.50
2019-02-08T11:49:15.851Z,51.40
2019-02-08T11:54:12.092Z,49.30
2019-02-08T11:59:08.460Z,47.80
2019-02-08T12:04:05.154Z,46.20
2019-02-08T12:09:01.215Z,46.50
2019-02-08T12:13:58.936Z,48.40
2019-02-08T12:18:55.235Z,49.60
2019-02-08T12:23:51.153Z,48.00
2019-02-08T12:28:47.455Z,46.70
2019-02-08T12:33:43.442Z,44.10
2019-02-08T12:38:39.861Z,46.30
2019-02-08T12:43:35.971Z,44.80
2019-02-08T12:48:31.984Z,42.60
2019-02-08T12:53:28.304Z,41.70
2019-02-08T12:58:26.702Z,40.80
2019-02-08T13:03:23.033Z,40.20
2019-02-08T13:08:19.322Z,40.40
2019-02-08T13:13:17.124Z,42.40
2019-02-08T13:18:13.378Z,44.50
2019-02-08T13:23:09.859Z,47.50
2019-02-08T13:28:06.275Z,49.30
2019-02-08T13:33:03.209Z,48.60
2019-02-08T13:37:59.408Z,47.00
2019-02-08T13:42:55.729Z,45.80
2019-02-08T13:47:51.927Z,44.60
2019-02-08T13:52:48.222Z,42.50
2019-02-08T13:57:44.107Z,42.70
2019-02-08T14:02:40.659Z,42.10
2019-02-08T14:07:36.918Z,41.10
2019-02-08T14:12:33.332Z,40.70
2019-02-08T14:17:29.455Z,39.40
2019-02-08T14:22:26.113Z,39.20
2019-02-08T14:27:22.485Z,38.50
2019-02-08T14:32:19.375Z,38.00
2019-02-08T14:37:15.332Z,38.20
2019-02-08T14:42:12.219Z,38.30
2019-02-08T14:47:07.924Z,39.40
2019-02-08T14:52:06.627Z,39.90
2019-02-08T14:57:03.421Z,42.60
2019-02-08T15:02:08.361Z,46.30
2019-02-08T15:07:10.413Z,48.40
2019-02-08T15:12:09.276Z,51.00
2019-02-08T15:17:07.040Z,53.70
2019-02-08T15:22:05.905Z,55.10
2019-02-08T15:27:05.068Z,56.80
2019-02-08T15:32:00.804Z,58.40
2019-02-08T15:36:59.961Z,60.80
2019-02-08T15:41:55.746Z,64.10
2019-02-08T15:46:51.460Z,66.30
2019-02-08T15:51:47.356Z,69.60
2019-02-08T15:56:43.310Z,71.80
2019-02-08T16:01:42.209Z,75.40
2019-02-08T16:06:39.990Z,77.60
2019-02-08T16:11:36.288Z,79.00
2019-02-08T16:16:32.190Z,82.50
2019-02-08T16:21:27.973Z,84.40
2019-02-08T16:26:26.095Z,85.60
2019-02-08T16:31:21.885Z,88.40
2019-02-08T16:36:17.682Z,90.10
2019-02-08T16:41:13.353Z,90.90
2019-02-08T16:46:09.282Z,91.50
2019-02-08T16:51:05.308Z,91.90
2019-02-08T16:56:01.180Z,92.80
2019-02-08T17:00:57.983Z,93.20
2019-02-08T17:05:53.937Z,92.90
2019-02-08T17:10:49.927Z,92.80
2019-02-08T17:15:45.871Z,93.30
2019-02-08T17:20:44.130Z,93.50
2019-02-08T17:25:40.203Z,93.80
2019-02-08T17:30:36.137Z,94.30
2019-02-08T17:35:31.998Z,94.60
2019-02-08T17:40:30.260Z,94.50
2019-02-08T17:45:26.641Z,94.60
2019-02-08T17:50:24.376Z,95.00
2019-02-08T17:55:21.394Z,95.80
2019-02-08T18:00:29.968Z,96.60
2019-02-08T18:05:25.967Z,96.30
2019-02-08T18:10:22.077Z,96.80
2019-02-08T18:15:23.212Z,97.30
2019-02-08T18:20:31.360Z,98.20
2019-02-08T18:25:28.331Z,98.80
2019-02-08T18:30:25.189Z,98.50
2019-02-08T18:35:21.626Z,98.50
2019-02-08T18:40:20.854Z,98.40
2019-02-08T18:45:19.552Z,98.50
2019-02-08T18:50:20.840Z,98.70
2019-02-08T18:55:16.905Z,98.90
2019-02-08T19:00:39.690Z,99.30
2019-02-08T19:05:30.957Z,99.70
2019-02-08T19:10:27.955Z,99.70
2019-02-08T19:15:24.610Z,99.70
2019-02-08T19:20:22.333Z,99.70
2019-02-08T19:25:23.710Z,99.90
2019-02-08T19:30:28.559Z,99.90
2019-02-08T19:35:24.728Z,99.90
2019-02-08T19:40:23.024Z,99.90
2019-02-08T19:45:19.325Z,99.90
2019-02-08T19:50:27.056Z,99.90
2019-02-08T19:55:24.139Z,99.90
2019-02-08T20:00:21.951Z,99.90
2019-02-08T20:05:20.817Z,99.90
2019-02-08T20:10:19.306Z,99.90
2019-02-08T20:15:17.231Z,99.90
2019-02-08T20:20:13.025Z,99.90
2019-02-08T20:25:12.433Z,99.90
2019-02-08T20:30:14.475Z,99.90
2019-02-08T20:35:13.066Z,99.90
2019-02-08T20:40:12.921Z,99.90
2019-02-08T20:45:13.014Z,99.90
2019-02-08T20:50:09.857Z,99.90
2019-02-08T20:55:07.641Z,99.90
2019-02-08T21:00:07.276Z,99.90
2019-02-08T21:05:08.259Z,99.90
2019-02-08T21:10:04.346Z,99.90
2019-02-08T21:15:00.209Z,99.90
2019-02-08T21:19:56.049Z,99.90
2019-02-08T21:24:51.970Z,99.90
2019-02-08T21:29:47.762Z,99.90
2019-02-08T21:34:43.507Z,99.90
2019-02-08T21:39:39.298Z,99.90
2019-02-08T21:44:35.262Z,99.90
2019-02-08T21:49:31.121Z,99.90
2019-02-08T21:54:26.919Z,99.90
2019-02-08T21:59:22.754Z,99.90
2019-02-08T22:04:19.473Z,99.90
2019-02-08T22:09:16.314Z,99.90
2019-02-08T22:14:12.203Z,99.90
2019-02-08T22:19:08.121Z,99.90
2019-02-08T22:24:04.140Z,99.90
2019-02-08T22:29:00.021Z,99.90
2019-02-08T22:33:57.792Z,99.90
2019-02-08T22:38:53.585Z,99.90
2019-02-08T22:43:49.357Z,99.90
2019-02-08T22:48:45.166Z,99.90
2019-02-08T22:53:41.087Z,99.90
2019-02-08T22:58:37.789Z,99.90
2019-02-08T23:03:34.565Z,99.90
2019-02-08T23:08:30.807Z,99.90
2019-02-08T23:13:28.189Z,99.90
2019-02-08T23:18:24.068Z,99.90
2019-02-08T23:23:19.813Z,99.90
2019-02-08T23:28:15.594Z,99.90
2019-02-08T23:33:11.603Z,99.90
2019-02-08T23:38:07.559Z,99.90
2019-02-08T23:43:05.642Z,99.90
2019-02-08T23:48:02.606Z,99.90
2019-02-08T23:52:58.491Z,99.90
2019-02-08T23:57:54.547Z,99.90
